createdAt,value
2017-10-18T00:01:40.666Z,100895.22
2017-10-18T00:04:13.604Z,100893.02
2017-10-18T00:06:40.554Z,100898.81
2017-10-18T00:09:07.779Z,100900.11
2017-10-18T00:11:34.950Z,100903.27
2017-10-18T00:14:02.382Z,100904.86
2017-10-18T00:16:34.713Z,100900.92
2017-10-18T00:19:01.766Z,100897.21
2017-10-18T00:21:28.625Z,100897.75
2017-10-18T00:23:56.621Z,100899.19
2017-10-18T00:26:24.648Z,100898.97
2017-10-18T00:28:51.567Z,100900.94
2017-10-18T00:31:19.260Z,100901.52
2017-10-18T00:33:46.529Z,100897.32
2017-10-18T00:36:15.226Z,100896.20
2017-10-18T00:38:42.275Z,100892.34
2017-10-18T00:41:09.579Z,100890.41
2017-10-18T00:43:39.118Z,100894.94
2017-10-18T00:46:11.326Z,100888.66
2017-10-18T00:48:43.736Z,100887.95
2017-10-18T00:51:10.789Z,100880.79
2017-10-18T00:53:44.883Z,100883.02
2017-10-18T00:56:12.158Z,100883.52
2017-10-18T00:58:42.221Z,100889.41
2017-10-18T01:01:09.307Z,100889.50
2017-10-18T01:03:41.896Z,100883.34
2017-10-18T01:06:08.836Z,100885.17
2017-10-18T01:08:37.340Z,100884.20
2017-10-18T01:11:04.297Z,100879.30
2017-10-18T01:13:31.298Z,100877.66
2017-10-18T01:16:03.633Z,100872.75
2017-10-18T01:18:30.935Z,100869.17
2017-10-18T01:20:57.896Z,100862.42
2017-10-18T01:23:24.976Z,100863.61
2017-10-18T01:25:52.070Z,100857.98
2017-10-18T01:28:19.443Z,100854.80
2017-10-18T01:30:46.404Z,100856.39
2017-10-18T01:33:19.165Z,100864.94
2017-10-18T01:35:46.101Z,100855.97
2017-10-18T01:38:13.081Z,100855.27
2017-10-18T01:40:40.143Z,100856.80
2017-10-18T01:43:07.878Z,100853.30
2017-10-18T01:45:43.734Z,100855.93
2017-10-18T01:48:14.967Z,100849.25
2017-10-18T01:50:43.144Z,100844.08
2017-10-18T01:53:11.232Z,100842.30
2017-10-18T01:55:38.056Z,100843.89
2017-10-18T01:58:05.689Z,100843.89
2017-10-18T02:00:33.034Z,100840.36
2017-10-18T02:03:03.707Z,100837.80
2017-10-18T02:05:36.504Z,100836.91
2017-10-18T02:08:04.578Z,100839.92
2017-10-18T02:10:31.618Z,100836.67
2017-10-18T02:12:59.296Z,100833.86
2017-10-18T02:15:26.530Z,100834.58
2017-10-18T02:17:53.562Z,100835.69
2017-10-18T02:20:25.750Z,100835.29
2017-10-18T02:22:57.901Z,100841.44
2017-10-18T02:25:30.852Z,100838.96
2017-10-18T02:27:58.182Z,100835.72
2017-10-18T02:30:25.188Z,100831.25
2017-10-18T02:32:57.601Z,100837.41
2017-10-18T02:35:29.917Z,100827.02
2017-10-18T02:38:02.790Z,100819.83
2017-10-18T02:40:29.781Z,100810.88
2017-10-18T02:42:56.662Z,100805.23
2017-10-18T02:45:23.846Z,100812.41
2017-10-18T02:47:52.476Z,100814.07
2017-10-18T02:50:20.176Z,100811.84
2017-10-18T02:52:56.103Z,100818.34
2017-10-18T02:55:23.116Z,100810.35
2017-10-18T02:57:50.689Z,100814.61
2017-10-18T03:00:22.919Z,100805.61
2017-10-18T03:02:49.792Z,100804.94
2017-10-18T03:05:16.794Z,100802.09
2017-10-18T03:07:46.848Z,100804.32
2017-10-18T03:10:13.799Z,100813.74
2017-10-18T03:12:40.918Z,100809.39
2017-10-18T03:15:08.069Z,100808.59
2017-10-18T03:17:35.063Z,100801.33
2017-10-18T03:20:01.980Z,100798.64
2017-10-18T03:22:28.967Z,100801.75
2017-10-18T03:24:57.185Z,100796.70
2017-10-18T03:27:24.452Z,100793.29
2017-10-18T03:29:57.377Z,100784.59
2017-10-18T03:32:29.939Z,100789.52
2017-10-18T03:35:02.874Z,100779.81
2017-10-18T03:37:30.777Z,100770.40
2017-10-18T03:39:59.900Z,100768.73
2017-10-18T03:42:32.241Z,100766.35
2017-10-18T03:45:00.957Z,100765.53
2017-10-18T03:47:30.178Z,100768.38
2017-10-18T03:49:57.036Z,100766.45
2017-10-18T03:52:30.163Z,100769.72
2017-10-18T03:55:02.919Z,100763.91
2017-10-18T03:57:30.022Z,100763.00
2017-10-18T03:59:57.000Z,100758.52
2017-10-18T04:02:24.126Z,100759.00
2017-10-18T04:04:51.275Z,100758.86
2017-10-18T04:07:18.268Z,100755.98
2017-10-18T04:09:51.816Z,100754.23
2017-10-18T04:12:19.148Z,100761.36
2017-10-18T04:14:46.093Z,100761.12
2017-10-18T04:17:16.560Z,100756.97
2017-10-18T04:19:49.559Z,100751.34
2017-10-18T04:22:21.608Z,100749.64
2017-10-18T04:24:49.044Z,100746.77
2017-10-18T04:27:16.186Z,100747.48
2017-10-18T04:29:45.859Z,100741.20
2017-10-18T04:32:18.609Z,100733.92
2017-10-18T04:34:46.608Z,100734.70
2017-10-18T04:37:14.588Z,100736.38
2017-10-18T04:39:42.548Z,100733.31
2017-10-18T04:42:09.804Z,100723.86
2017-10-18T04:44:36.880Z,100730.22
2017-10-18T04:47:04.892Z,100729.63
2017-10-18T04:49:33.081Z,100721.11
2017-10-18T04:52:01.299Z,100722.24
2017-10-18T04:54:29.265Z,100709.72
2017-10-18T04:57:02.145Z,100712.86
2017-10-18T04:59:29.369Z,100713.24
2017-10-18T05:02:01.525Z,100712.08
2017-10-18T05:04:29.260Z,100712.19
2017-10-18T05:06:56.378Z,100713.23
2017-10-18T05:09:24.316Z,100710.42
2017-10-18T05:11:51.271Z,100716.73
2017-10-18T05:14:25.233Z,100705.18
2017-10-18T05:16:53.074Z,100706.29
2017-10-18T05:19:20.349Z,100700.91
2017-10-18T05:21:54.829Z,100701.03
2017-10-18T05:24:25.880Z,100695.50
2017-10-18T05:26:53.800Z,100698.02
2017-10-18T05:29:20.717Z,100692.60
2017-10-18T05:31:48.942Z,100695.63
2017-10-18T05:34:21.171Z,100686.30
2017-10-18T05:36:48.115Z,100686.45
2017-10-18T05:39:16.469Z,100683.38
2017-10-18T05:41:43.578Z,100684.91
2017-10-18T05:44:10.963Z,100689.66
2017-10-18T05:46:38.797Z,100688.17
2017-10-18T05:49:06.204Z,100693.48
2017-10-18T05:51:33.495Z,100689.48
2017-10-18T05:54:05.759Z,100695.70
2017-10-18T05:56:38.202Z,100690.11
2017-10-18T05:59:10.367Z,100690.84
2017-10-18T06:01:42.716Z,100696.47
2017-10-18T06:04:16.665Z,100693.77
2017-10-18T06:06:43.966Z,100692.30
2017-10-18T06:09:15.965Z,100690.87
2017-10-18T06:11:49.052Z,100687.06
2017-10-18T06:14:20.806Z,100697.72
2017-10-18T06:16:47.886Z,100696.83
2017-10-18T06:19:14.951Z,100700.27
2017-10-18T06:21:42.610Z,100693.81
2017-10-18T06:24:09.583Z,100697.34
2017-10-18T06:26:36.558Z,100688.48
2017-10-18T06:29:03.535Z,100692.17
2017-10-18T06:31:32.771Z,100691.20
2017-10-18T06:34:01.419Z,100691.91
2017-10-18T06:36:31.579Z,100694.78
2017-10-18T06:39:04.534Z,100691.91
2017-10-18T06:41:37.026Z,100694.70
2017-10-18T06:44:04.050Z,100692.39
2017-10-18T06:46:30.898Z,100685.31
2017-10-18T06:48:58.492Z,100692.83
2017-10-18T06:51:25.450Z,100687.04
2017-10-18T06:53:52.271Z,100688.17
2017-10-18T06:56:19.437Z,100686.97
2017-10-18T06:58:51.933Z,100686.14
2017-10-18T07:01:19.764Z,100683.27
2017-10-18T07:03:47.224Z,100691.10
2017-10-18T07:06:14.153Z,100685.58
2017-10-18T07:08:46.032Z,100681.91
2017-10-18T07:11:13.786Z,100682.73
2017-10-18T07:13:45.800Z,100688.17
2017-10-18T07:16:12.610Z,100689.72
2017-10-18T07:18:40.255Z,100692.25
2017-10-18T07:21:08.411Z,100694.80
2017-10-18T07:23:35.303Z,100694.61
2017-10-18T07:26:03.174Z,100692.69
2017-10-18T07:28:35.366Z,100692.71
2017-10-18T07:31:03.085Z,100689.30
2017-10-18T07:33:31.759Z,100687.80
2017-10-18T07:35:58.642Z,100696.89
2017-10-18T07:38:25.562Z,100705.01
2017-10-18T07:40:53.437Z,100701.56
2017-10-18T07:43:21.143Z,100695.73
2017-10-18T07:45:49.254Z,100700.86
2017-10-18T07:48:16.147Z,100692.06
2017-10-18T07:50:48.127Z,100694.67
2017-10-18T07:53:14.962Z,100703.02
2017-10-18T07:55:41.814Z,100697.38
2017-10-18T07:58:08.664Z,100692.27
2017-10-18T08:00:35.529Z,100689.06
2017-10-18T08:03:02.491Z,100694.70
2017-10-18T08:05:29.296Z,100692.28
2017-10-18T08:07:56.131Z,100691.70
2017-10-18T08:10:22.986Z,100694.87
2017-10-18T08:12:49.804Z,100689.02
2017-10-18T08:15:16.640Z,100683.11
2017-10-18T08:17:43.489Z,100686.08
2017-10-18T08:20:11.084Z,100684.20
2017-10-18T08:22:37.967Z,100681.48
2017-10-18T08:25:04.876Z,100683.73
2017-10-18T08:27:31.723Z,100676.59
2017-10-18T08:29:58.548Z,100671.25
2017-10-18T08:32:25.488Z,100667.09
2017-10-18T08:34:52.283Z,100671.97
2017-10-18T08:37:19.212Z,100673.48
2017-10-18T08:39:46.057Z,100668.63
2017-10-18T08:42:13.646Z,100667.14
2017-10-18T08:44:41.303Z,100665.92
2017-10-18T08:47:08.893Z,100669.55
2017-10-18T08:49:36.513Z,100671.00
2017-10-18T08:52:03.343Z,100675.38
2017-10-18T08:54:30.186Z,100666.07
2017-10-18T08:56:57.006Z,100664.64
2017-10-18T09:33:24.640Z,100635.12
2017-10-18T09:35:51.465Z,100633.23
2017-10-18T09:38:18.284Z,100639.56
2017-10-18T09:40:45.099Z,100634.80
2017-10-18T09:43:12.680Z,100634.57
2017-10-18T09:45:40.278Z,100628.38
2017-10-18T09:48:07.824Z,100628.09
2017-10-18T09:50:34.646Z,100625.22
2017-10-18T09:53:02.201Z,100620.64
2017-10-18T09:55:29.055Z,100620.06
2017-10-18T09:57:55.864Z,100611.98
2017-10-18T10:00:22.696Z,100612.55
2017-10-18T10:02:49.510Z,100608.68
2017-10-18T10:05:16.383Z,100607.66
2017-10-18T10:07:43.993Z,100611.36
2017-10-18T10:10:10.800Z,100611.64
2017-10-18T10:12:37.631Z,100612.53
2017-10-18T10:15:04.410Z,100611.40
2017-10-18T10:17:31.227Z,100610.72
2017-10-18T10:19:58.207Z,100612.61
2017-10-18T10:22:25.049Z,100607.75
2017-10-18T10:24:51.913Z,100605.89
2017-10-18T10:27:18.754Z,100607.31
2017-10-18T10:29:46.359Z,100604.05
2017-10-18T10:32:13.193Z,100601.33
2017-10-18T10:34:40.822Z,100598.23
2017-10-18T10:37:07.623Z,100593.12
2017-10-18T10:39:35.249Z,100588.12
2017-10-18T10:42:02.328Z,100585.98
2017-10-18T10:44:29.189Z,100592.39
2017-10-18T10:46:55.974Z,100590.76
2017-10-18T10:49:22.828Z,100592.81
2017-10-18T10:51:49.805Z,100593.27
2017-10-18T10:54:16.637Z,100593.28
2017-10-18T10:56:43.466Z,100591.42
2017-10-18T10:59:10.289Z,100590.51
2017-10-18T11:01:37.145Z,100589.33
2017-10-18T11:04:03.990Z,100589.02
2017-10-18T11:06:30.992Z,100590.45
2017-10-18T11:08:58.577Z,100592.17
2017-10-18T11:11:26.151Z,100589.59
2017-10-18T11:13:53.731Z,100586.97
2017-10-18T11:16:22.338Z,100581.70
2017-10-18T11:18:49.232Z,100580.30
2017-10-18T11:21:16.834Z,100576.98
2017-10-18T11:23:43.650Z,100579.87
2017-10-18T11:26:10.447Z,100571.67
2017-10-18T11:28:37.282Z,100567.45
2017-10-18T11:31:04.122Z,100564.41
2017-10-18T11:33:30.957Z,100569.33
2017-10-18T11:35:57.789Z,100571.05
2017-10-18T11:38:24.655Z,100567.61
2017-10-18T11:40:51.492Z,100562.14
2017-10-18T11:43:18.313Z,100557.69
2017-10-18T11:45:45.459Z,100557.09
2017-10-18T11:48:12.280Z,100554.39
2017-10-18T11:50:39.141Z,100542.39
2017-10-18T11:53:05.948Z,100548.11
2017-10-18T11:55:32.780Z,100538.38
2017-10-18T11:57:59.617Z,100543.05
2017-10-18T12:00:26.453Z,100546.18
2017-10-18T12:02:54.012Z,100542.29
2017-10-18T12:05:21.549Z,100544.51
2017-10-18T12:07:48.405Z,100535.92
2017-10-18T12:10:15.264Z,100534.86
2017-10-18T12:12:42.082Z,100541.15
2017-10-18T12:15:09.655Z,100533.69
2017-10-18T12:17:37.203Z,100527.89
2017-10-18T12:20:04.067Z,100531.45
2017-10-18T12:22:30.907Z,100528.80
2017-10-18T12:24:57.735Z,100530.95
2017-10-18T12:27:24.608Z,100527.36
2017-10-18T12:29:51.458Z,100528.81
2017-10-18T12:32:18.325Z,100520.55
2017-10-18T12:34:45.135Z,100518.84
2017-10-18T12:37:11.987Z,100518.78
2017-10-18T12:39:38.825Z,100515.05
2017-10-18T12:42:06.394Z,100515.17
2017-10-18T12:44:33.219Z,100507.92
2017-10-18T12:47:00.792Z,100510.70
2017-10-18T12:49:27.619Z,100505.15
2017-10-18T12:51:54.491Z,100497.44
2017-10-18T12:54:21.401Z,100497.44
2017-10-18T12:56:48.278Z,100503.12
2017-10-18T12:59:15.091Z,100495.54
2017-10-18T13:01:41.955Z,100486.32
2017-10-18T13:04:08.791Z,100496.41
2017-10-18T13:06:35.652Z,100500.73
2017-10-18T13:09:02.641Z,100497.45
2017-10-18T13:11:29.492Z,100500.45
2017-10-18T13:13:56.347Z,100493.78
2017-10-18T13:16:23.217Z,100488.77
2017-10-18T13:18:50.062Z,100488.95
2017-10-18T13:21:16.904Z,100487.75
2017-10-18T13:23:43.719Z,100485.21
2017-10-18T13:26:11.265Z,100485.66
2017-10-18T13:28:38.114Z,100481.85
2017-10-18T13:31:04.992Z,100482.62
2017-10-18T13:33:31.872Z,100485.61
2017-10-18T13:35:58.694Z,100484.09
2017-10-18T13:38:25.547Z,100483.73
2017-10-18T13:40:52.423Z,100484.39
2017-10-18T13:43:19.299Z,100485.69
2017-10-18T13:45:46.135Z,100485.00
2017-10-18T13:48:13.015Z,100476.84
2017-10-18T13:50:39.896Z,100481.37
2017-10-18T13:53:06.777Z,100479.27
2017-10-18T13:55:34.371Z,100480.11
2017-10-18T13:58:01.180Z,100482.27
2017-10-18T14:00:28.064Z,100481.11
2017-10-18T14:02:54.897Z,100485.44
2017-10-18T14:05:21.740Z,100487.86
2017-10-18T14:07:48.621Z,100477.56
2017-10-18T14:10:15.456Z,100480.20
2017-10-18T14:12:42.286Z,100478.95
2017-10-18T14:15:09.850Z,100478.95
2017-10-18T14:17:36.673Z,100481.72
2017-10-18T14:20:03.539Z,100475.62
2017-10-18T14:22:30.457Z,100483.42
2017-10-18T14:24:59.107Z,100480.39
2017-10-18T14:27:25.985Z,100488.31
2017-10-18T14:29:52.885Z,100477.34
2017-10-18T14:32:20.518Z,100474.09
2017-10-18T14:34:47.435Z,100476.85
2017-10-18T14:37:14.296Z,100474.72
2017-10-18T14:39:41.142Z,100476.41
2017-10-18T14:42:08.810Z,100477.43
2017-10-18T14:44:35.758Z,100479.03
2017-10-18T14:47:02.778Z,100483.08
2017-10-18T14:49:29.603Z,100481.71
2017-10-18T14:51:56.448Z,100480.48
2017-10-18T14:54:23.358Z,100486.79
2017-10-18T14:56:50.226Z,100482.70
2017-10-18T14:59:17.091Z,100489.92
2017-10-18T15:01:44.001Z,100484.44
2017-10-18T15:04:10.813Z,100482.41
2017-10-18T15:06:37.676Z,100482.58
2017-10-18T15:09:05.462Z,100483.06
2017-10-18T15:11:32.326Z,100476.39
2017-10-18T15:13:59.169Z,100487.63
2017-10-18T15:16:26.016Z,100478.77
2017-10-18T15:18:53.640Z,100475.20
2017-10-18T15:21:24.140Z,100479.65
2017-10-18T15:23:51.274Z,100481.11
2017-10-18T15:26:18.917Z,100483.94
2017-10-18T15:28:45.776Z,100485.17
2017-10-18T15:31:12.631Z,100487.48
2017-10-18T15:33:39.437Z,100477.13
2017-10-18T15:36:06.268Z,100488.33
2017-10-18T15:38:33.127Z,100484.10
2017-10-18T15:40:59.952Z,100484.37
2017-10-18T15:43:27.571Z,100482.45
2017-10-18T15:45:54.420Z,100480.94
2017-10-18T15:48:21.260Z,100487.08
2017-10-18T15:50:51.368Z,100487.06
2017-10-18T15:53:18.311Z,100490.34
2017-10-18T15:55:45.212Z,100489.86
2017-10-18T15:58:13.211Z,100493.34
2017-10-18T16:00:40.151Z,100484.91
2017-10-18T16:03:07.763Z,100487.75
2017-10-18T16:05:34.644Z,100492.78
2017-10-18T16:08:04.004Z,100489.33
2017-10-18T16:10:31.449Z,100496.66
2017-10-18T16:13:02.069Z,100491.55
2017-10-18T16:15:29.871Z,100494.48
2017-10-18T16:17:58.358Z,100488.70
2017-10-18T16:20:27.797Z,100497.08
2017-10-18T16:22:55.378Z,100493.66
2017-10-18T16:25:23.106Z,100501.94
2017-10-18T16:27:49.965Z,100499.47
2017-10-18T16:30:17.540Z,100500.55
2017-10-18T16:32:45.452Z,100501.67
2017-10-18T16:35:13.192Z,100502.52
2017-10-18T16:37:40.054Z,100507.07
2017-10-18T16:40:07.215Z,100510.09
2017-10-18T16:42:34.366Z,100512.23
2017-10-18T16:45:02.156Z,100513.77
2017-10-18T16:47:29.022Z,100512.62
2017-10-18T16:50:21.234Z,100517.75
2017-10-18T16:52:48.884Z,100517.38
2017-10-18T16:55:15.764Z,100518.84
2017-10-18T16:57:42.669Z,100522.36
2017-10-18T17:00:09.501Z,100519.14
2017-10-18T17:02:36.459Z,100525.15
2017-10-18T17:05:03.389Z,100523.42
2017-10-18T17:07:30.998Z,100519.84
2017-10-18T17:09:57.868Z,100520.98
2017-10-18T17:12:24.725Z,100521.55
2017-10-18T17:14:51.726Z,100520.32
2017-10-18T17:17:18.558Z,100520.84
2017-10-18T17:19:45.408Z,100527.82
2017-10-18T17:22:12.274Z,100528.13
2017-10-18T17:24:39.124Z,100530.81
2017-10-18T17:27:05.975Z,100528.58
2017-10-18T17:29:32.820Z,100525.47
2017-10-18T17:32:00.393Z,100521.13
2017-10-18T17:34:28.053Z,100523.89
2017-10-18T17:36:55.159Z,100523.86
2017-10-18T17:39:22.102Z,100529.78
2017-10-18T17:41:49.003Z,100532.31
2017-10-18T17:44:15.888Z,100531.83
2017-10-18T17:46:42.817Z,100525.52
2017-10-18T17:49:09.962Z,100533.20
2017-10-18T17:51:37.580Z,100524.33
2017-10-18T17:54:04.450Z,100528.52
2017-10-18T17:56:31.481Z,100534.91
2017-10-18T17:58:58.381Z,100531.69
2017-10-18T18:01:25.320Z,100531.27
2017-10-18T18:03:52.200Z,100538.08
2017-10-18T18:06:19.204Z,100532.63
2017-10-18T18:08:46.504Z,100536.22
2017-10-18T18:11:13.488Z,100542.22
2017-10-18T18:13:40.377Z,100544.69
2017-10-18T18:16:07.719Z,100548.06
2017-10-18T18:18:35.180Z,100538.61
2017-10-18T18:21:02.157Z,100541.09
2017-10-18T18:23:29.287Z,100542.22
2017-10-18T18:25:59.908Z,100533.42
2017-10-18T18:28:32.448Z,100537.91
2017-10-18T18:31:02.193Z,100538.86
2017-10-18T18:46:28.272Z,100543.33
2017-10-18T18:48:58.813Z,100553.89
2017-10-18T18:51:28.950Z,100549.37
2017-10-18T18:53:58.402Z,100548.82
2017-10-18T18:56:27.486Z,100553.72
2017-10-18T18:58:57.072Z,100549.64
2017-10-18T19:14:39.880Z,100547.77
2017-10-18T19:17:07.347Z,100545.41
2017-10-18T19:19:35.073Z,100550.38
2017-10-18T19:22:02.086Z,100548.91
2017-10-18T19:24:29.704Z,100551.13
2017-10-18T19:26:57.142Z,100548.38
2017-10-18T19:29:24.915Z,100546.03
2017-10-18T19:31:52.602Z,100552.77
2017-10-18T19:34:20.647Z,100555.67
2017-10-18T19:36:47.720Z,100549.73
2017-10-18T19:39:14.624Z,100548.99
2017-10-18T19:41:41.567Z,100544.01
2017-10-18T19:44:08.876Z,100548.47
2017-10-18T19:46:36.971Z,100558.33
2017-10-18T19:49:04.304Z,100559.84
2017-10-18T19:51:32.678Z,100553.25
2017-10-18T19:53:59.619Z,100555.02
2017-10-18T19:56:26.785Z,100555.67
2017-10-18T19:58:53.704Z,100549.07
2017-10-18T20:01:21.315Z,100550.54
2017-10-18T20:03:51.031Z,100550.02
2017-10-18T20:06:19.608Z,100555.55
2017-10-18T20:08:47.295Z,100558.71
2017-10-18T20:11:14.200Z,100558.84
2017-10-18T20:13:41.078Z,100558.01
2017-10-18T20:16:08.014Z,100557.56
2017-10-18T20:18:35.006Z,100557.62
2017-10-18T20:21:02.328Z,100552.09
2017-10-18T20:23:29.914Z,100554.06
2017-10-18T20:25:57.513Z,100549.50
2017-10-18T20:28:24.445Z,100554.05
2017-10-18T20:30:51.308Z,100561.36
2017-10-18T20:33:18.149Z,100557.13
2017-10-18T20:35:45.066Z,100563.14
2017-10-18T20:38:11.975Z,100553.96
2017-10-18T20:40:38.831Z,100562.56
2017-10-18T20:43:05.672Z,100561.46
2017-10-18T20:45:32.514Z,100563.73
2017-10-18T20:47:59.428Z,100566.42
2017-10-18T20:50:26.362Z,100570.94
2017-10-18T20:52:54.161Z,100575.02
2017-10-18T20:55:20.977Z,100571.24
2017-10-18T20:57:47.813Z,100577.25
2017-10-18T21:00:14.665Z,100566.16
2017-10-18T21:02:41.507Z,100562.57
2017-10-18T21:05:08.407Z,100563.92
2017-10-18T21:07:36.017Z,100559.59
2017-10-18T21:10:02.956Z,100558.63
2017-10-18T21:12:29.855Z,100556.42
2017-10-18T21:14:56.688Z,100552.81
2017-10-18T21:17:23.680Z,100551.94
2017-10-18T21:19:51.125Z,100552.83
2017-10-18T21:22:18.590Z,100556.58
2017-10-18T21:24:45.718Z,100549.62
2017-10-18T21:27:14.035Z,100547.88
2017-10-18T21:29:42.111Z,100538.80
2017-10-18T21:32:10.252Z,100547.81
2017-10-18T21:34:37.196Z,100544.36
2017-10-18T21:37:04.070Z,100541.06
2017-10-18T21:39:31.652Z,100544.94
2017-10-18T21:41:58.844Z,100540.85
2017-10-18T21:44:25.803Z,100545.55
2017-10-18T21:46:52.707Z,100543.75
2017-10-18T21:49:19.615Z,100538.59
2017-10-18T21:51:46.473Z,100538.98
2017-10-18T21:54:13.275Z,100540.14
2017-10-18T21:56:40.127Z,100550.84
2017-10-18T21:59:06.961Z,100544.05
2017-10-18T22:01:33.814Z,100550.25
2017-10-18T22:04:00.642Z,100549.61
2017-10-18T22:06:28.231Z,100548.21
2017-10-18T22:08:56.283Z,100553.95
2017-10-18T22:11:23.426Z,100558.95
2017-10-18T22:13:50.720Z,100549.98
2017-10-18T22:16:17.558Z,100551.77
2017-10-18T22:18:44.415Z,100553.77
2017-10-18T22:21:11.640Z,100546.99
2017-10-18T22:23:38.512Z,100549.37
2017-10-18T22:26:06.083Z,100551.91
2017-10-18T22:28:32.894Z,100551.75
2017-10-18T22:31:00.388Z,100553.94
2017-10-18T22:33:27.418Z,100555.45
2017-10-18T22:35:54.241Z,100556.86
2017-10-18T22:38:21.120Z,100551.68
2017-10-18T22:40:49.156Z,100556.09
2017-10-18T22:43:16.460Z,100558.23
2017-10-18T22:45:43.444Z,100554.61
2017-10-18T22:48:10.290Z,100553.34
2017-10-18T22:50:37.827Z,100557.59
2017-10-18T22:53:04.738Z,100551.56
2017-10-18T22:55:31.576Z,100558.98
2017-10-18T22:57:58.457Z,100554.06
2017-10-18T23:00:26.054Z,100562.70
2017-10-18T23:02:53.472Z,100554.45
2017-10-18T23:05:20.872Z,100552.97
2017-10-18T23:07:47.705Z,100553.38
2017-10-18T23:10:14.636Z,100555.75
2017-10-18T23:12:41.505Z,100555.48
2017-10-18T23:15:08.985Z,100553.12
2017-10-18T23:17:35.858Z,100561.42
2017-10-18T23:20:03.121Z,100555.53
2017-10-18T23:22:29.939Z,100551.21
2017-10-18T23:24:57.583Z,100553.34
2017-10-18T23:27:24.474Z,100553.73
2017-10-18T23:29:51.830Z,100555.21
2017-10-18T23:32:19.006Z,100546.13
2017-10-18T23:34:45.839Z,100553.72
2017-10-18T23:37:12.691Z,100556.22
2017-10-18T23:39:39.502Z,100549.16
2017-10-18T23:42:06.319Z,100548.83
2017-10-18T23:44:33.178Z,100551.77
2017-10-18T23:46:59.991Z,100551.12
2017-10-18T23:49:26.833Z,100548.21
2017-10-18T23:51:53.658Z,100558.08
2017-10-18T23:54:20.635Z,100551.14
2017-10-18T23:56:47.530Z,100551.47
2017-10-18T23:59:14.957Z,100554.93
